createdAt,value
2019-02-14T00:00:09.895Z,44.23
2019-02-14T00:03:33.659Z,41.90
2019-02-14T00:06:57.136Z,54.43
2019-02-14T00:10:20.854Z,44.67
2019-02-14T00:13:44.405Z,48.17
2019-02-14T00:17:07.858Z,41.10
2019-02-14T00:20:31.377Z,39.30
2019-02-14T00:23:55.116Z,41.50
2019-02-14T00:27:18.626Z,35.37
2019-02-14T00:30:42.297Z,40.80
2019-02-14T00:34:06.043Z,42.40
2019-02-14T00:37:29.543Z,37.17
2019-02-14T00:40:53.079Z,44.70
2019-02-14T00:44:16.684Z,47.83
2019-02-14T00:47:40.218Z,48.93
2019-02-14T00:51:03.796Z,48.23
2019-02-14T00:54:27.518Z,43.53
2019-02-14T00:57:51.150Z,42.60
2019-02-14T01:01:14.851Z,37.90
2019-02-14T01:04:38.543Z,41.87
2019-02-14T01:08:02.103Z,42.90
2019-02-14T01:11:25.907Z,38.27
2019-02-14T01:14:49.530Z,43.70
2019-02-14T01:18:13.730Z,51.30
2019-02-14T01:21:37.430Z,48.90
2019-02-14T01:25:01.076Z,38.43
2019-02-14T01:28:25.086Z,40.97
2019-02-14T01:31:48.758Z,44.73
2019-02-14T01:35:12.934Z,43.83
2019-02-14T01:38:36.423Z,44.53
2019-02-14T01:42:00.160Z,44.53
2019-02-14T01:45:23.750Z,43.83
2019-02-14T01:48:47.537Z,38.47
2019-02-14T01:52:11.331Z,34.00
2019-02-14T01:55:35.185Z,44.07
2019-02-14T01:58:58.963Z,52.00
2019-02-14T02:02:22.666Z,36.27
2019-02-14T02:05:50.875Z,46.20
2019-02-14T02:09:11.549Z,50.03
2019-02-14T02:12:35.231Z,50.47
2019-02-14T02:15:59.010Z,47.77
2019-02-14T02:19:22.744Z,41.37
2019-02-14T02:22:46.488Z,46.67
2019-02-14T02:26:10.016Z,45.80
2019-02-14T02:29:33.916Z,45.37
2019-02-14T02:32:57.444Z,46.90
2019-02-14T02:36:21.031Z,44.73
2019-02-14T02:39:44.723Z,48.07
2019-02-14T02:43:08.289Z,38.73
2019-02-14T02:46:31.890Z,52.50
2019-02-14T02:49:55.558Z,52.03
2019-02-14T02:53:19.119Z,38.80
2019-02-14T02:56:42.912Z,51.90
2019-02-14T03:00:09.668Z,48.60
2019-02-14T03:03:33.341Z,47.30
2019-02-14T03:06:56.968Z,44.73
2019-02-14T03:10:20.663Z,46.60
2019-02-14T03:13:44.376Z,50.10
2019-02-14T03:17:08.062Z,51.07
2019-02-14T03:20:31.803Z,50.27
2019-02-14T03:23:55.463Z,49.10
2019-02-14T03:27:18.938Z,50.43
2019-02-14T03:30:42.610Z,42.17
2019-02-14T03:34:06.283Z,50.90
2019-02-14T03:37:29.950Z,45.20
2019-02-14T03:40:53.517Z,52.23
2019-02-14T03:44:17.106Z,49.30
2019-02-14T03:47:40.783Z,56.10
2019-02-14T03:51:04.351Z,51.87
2019-02-14T03:54:28.042Z,49.20
2019-02-14T03:57:51.756Z,50.57
2019-02-14T04:01:15.303Z,58.03
2019-02-14T04:04:38.998Z,50.00
2019-02-14T04:08:02.687Z,53.67
2019-02-14T04:11:26.318Z,55.73
2019-02-14T04:14:49.863Z,56.73
2019-02-14T04:18:13.396Z,32.67
2019-02-14T04:21:37.027Z,56.93
2019-02-14T04:25:00.495Z,61.13
2019-02-14T04:28:24.205Z,57.63
2019-02-14T04:31:47.890Z,50.80
2019-02-14T04:35:11.957Z,55.60
2019-02-14T04:38:35.557Z,63.70
2019-02-14T04:41:59.291Z,66.37
2019-02-14T04:45:22.758Z,68.53
2019-02-14T04:48:46.241Z,60.63
2019-02-14T04:52:09.805Z,66.60
2019-02-14T04:55:33.376Z,58.83
2019-02-14T04:58:56.948Z,60.60
2019-02-14T05:02:20.543Z,59.87
2019-02-14T05:05:44.733Z,67.17
2019-02-14T05:09:09.683Z,59.77
2019-02-14T05:12:33.190Z,69.83
2019-02-14T05:15:57.074Z,59.03
2019-02-14T05:19:20.633Z,64.00
2019-02-14T05:22:44.332Z,58.07
2019-02-14T05:26:07.881Z,47.47
2019-02-14T05:29:31.293Z,60.90
2019-02-14T05:32:54.854Z,65.30
2019-02-14T05:36:18.449Z,58.27
2019-02-14T05:39:41.995Z,50.37
2019-02-14T05:43:05.659Z,51.30
2019-02-14T05:46:29.638Z,50.37
2019-02-14T05:49:53.258Z,46.43
2019-02-14T05:53:16.924Z,44.13
2019-02-14T05:56:40.379Z,44.20
2019-02-14T06:00:06.711Z,43.30
2019-02-14T06:03:31.330Z,42.47
2019-02-14T06:07:00.949Z,42.93
2019-02-14T06:10:21.075Z,47.50
2019-02-14T06:13:44.634Z,44.30
2019-02-14T06:17:08.231Z,44.17
2019-02-14T06:20:31.866Z,49.87
2019-02-14T06:23:55.536Z,38.00
2019-02-14T06:27:19.284Z,39.87
2019-02-14T06:30:42.819Z,33.07
2019-02-14T06:34:06.425Z,34.37
2019-02-14T06:37:29.906Z,45.53
2019-02-14T06:40:53.501Z,45.87
2019-02-14T06:44:16.943Z,45.07
2019-02-14T06:47:41.056Z,38.70
2019-02-14T06:51:04.573Z,57.10
2019-02-14T06:54:28.177Z,40.97
2019-02-14T06:57:51.707Z,51.20
2019-02-14T07:01:15.451Z,38.40
2019-02-14T07:04:39.116Z,39.87
2019-02-14T07:08:02.763Z,37.30
2019-02-14T07:11:26.489Z,38.93
2019-02-14T07:14:50.174Z,38.70
2019-02-14T07:18:13.808Z,36.07
2019-02-14T07:21:37.322Z,33.07
2019-02-14T07:25:00.814Z,37.60
2019-02-14T07:28:24.455Z,38.90
2019-02-14T07:31:47.948Z,46.13
2019-02-14T07:35:11.598Z,37.30
2019-02-14T07:38:35.112Z,39.23
2019-02-14T07:41:58.648Z,40.20
2019-02-14T07:45:22.180Z,39.30
2019-02-14T07:48:45.662Z,41.93
2019-02-14T07:52:09.334Z,34.07
2019-02-14T07:55:32.938Z,34.53
2019-02-14T07:58:56.630Z,34.67
2019-02-14T08:02:20.158Z,37.60
2019-02-14T08:05:43.831Z,35.53
2019-02-14T08:09:07.402Z,35.17
2019-02-14T08:12:30.837Z,38.63
2019-02-14T08:15:54.571Z,37.00
2019-02-14T08:19:18.238Z,38.63
2019-02-14T08:22:41.809Z,28.70
2019-02-14T08:26:10.779Z,27.20
2019-02-14T08:29:30.733Z,30.50
2019-02-14T08:32:54.497Z,30.90
2019-02-14T08:36:18.074Z,30.53
2019-02-14T08:39:41.558Z,24.43
2019-02-14T08:43:05.120Z,29.53
2019-02-14T08:46:28.558Z,30.37
2019-02-14T08:49:52.163Z,28.97
2019-02-14T08:53:15.577Z,28.80
2019-02-14T08:56:39.395Z,23.53
2019-02-14T09:00:02.959Z,22.77
2019-02-14T09:03:26.638Z,30.87
2019-02-14T09:06:50.128Z,25.83
2019-02-14T09:10:15.916Z,20.13
2019-02-14T09:13:39.456Z,23.97
2019-02-14T09:17:02.968Z,22.87
2019-02-14T09:20:26.640Z,21.37
2019-02-14T09:23:50.108Z,21.80
2019-02-14T09:27:13.733Z,22.80
2019-02-14T09:30:37.235Z,21.03
2019-02-14T09:34:00.736Z,26.30
2019-02-14T09:37:24.298Z,20.93
2019-02-14T09:40:49.515Z,19.53
2019-02-14T09:44:12.959Z,18.47
2019-02-14T09:47:36.678Z,18.33
2019-02-14T09:51:00.243Z,20.47
2019-02-14T09:54:23.848Z,15.03
2019-02-14T09:57:47.507Z,15.40
2019-02-14T10:01:11.112Z,17.53
2019-02-14T10:04:34.787Z,16.40
2019-02-14T10:07:58.343Z,25.40
2019-02-14T10:11:21.806Z,18.47
2019-02-14T10:14:45.375Z,18.93
2019-02-14T10:18:09.075Z,21.03
2019-02-14T10:21:32.508Z,17.70
2019-02-14T10:24:55.963Z,21.30
2019-02-14T10:28:19.547Z,17.73
2019-02-14T10:31:43.276Z,13.50
2019-02-14T10:35:06.790Z,15.27
2019-02-14T10:38:30.428Z,14.50
2019-02-14T10:41:53.981Z,16.57
2019-02-14T10:45:22.680Z,25.70
2019-02-14T10:48:46.417Z,23.93
2019-02-14T10:52:09.890Z,35.17
2019-02-14T10:55:33.359Z,18.67
2019-02-14T10:58:58.942Z,12.93
2019-02-14T11:02:22.245Z,11.73
2019-02-14T11:05:45.958Z,13.83
2019-02-14T11:09:11.440Z,17.80
2019-02-14T11:12:35.126Z,14.00
2019-02-14T11:15:58.542Z,15.30
2019-02-14T11:19:22.109Z,15.37
2019-02-14T11:22:45.981Z,12.20
2019-02-14T11:26:09.546Z,16.23
2019-02-14T11:29:33.111Z,13.40
2019-02-14T11:32:56.619Z,13.83
2019-02-14T11:36:20.355Z,20.43
2019-02-14T11:39:43.843Z,10.53
2019-02-14T11:43:07.392Z,14.30
2019-02-14T11:46:30.991Z,15.10
2019-02-14T11:49:54.636Z,15.73
2019-02-14T11:53:18.462Z,14.80
2019-02-14T11:56:41.915Z,21.13
2019-02-14T12:00:18.265Z,12.30
2019-02-14T12:03:41.798Z,12.13
2019-02-14T12:07:05.430Z,13.53
2019-02-14T12:10:28.913Z,12.47
2019-02-14T12:13:52.493Z,10.67
2019-02-14T12:17:16.139Z,11.23
2019-02-14T12:20:39.698Z,11.13
2019-02-14T12:24:12.179Z,15.73
2019-02-14T12:27:35.888Z,13.70
2019-02-14T12:30:59.363Z,14.30
2019-02-14T12:34:22.895Z,13.97
2019-02-14T12:37:46.413Z,14.70
2019-02-14T12:41:09.935Z,11.47
2019-02-14T12:44:33.965Z,9.30
2019-02-14T12:47:57.403Z,10.17
2019-02-14T12:51:21.214Z,9.37
2019-02-14T12:54:44.620Z,12.40
2019-02-14T12:58:08.263Z,11.30
2019-02-14T13:01:31.798Z,10.47
2019-02-14T13:04:55.211Z,9.80
2019-02-14T13:08:18.843Z,12.57
2019-02-14T13:11:42.433Z,8.60
2019-02-14T13:15:09.388Z,13.77
2019-02-14T13:18:32.988Z,10.50
2019-02-14T13:21:56.645Z,16.40
2019-02-14T13:25:20.311Z,15.07
2019-02-14T13:28:47.445Z,12.03
2019-02-14T13:32:10.938Z,13.07
2019-02-14T13:35:34.692Z,11.53
2019-02-14T13:38:58.303Z,15.43
2019-02-14T13:42:22.095Z,29.20
2019-02-14T13:45:45.557Z,11.93
2019-02-14T13:49:09.235Z,11.67
2019-02-14T13:52:32.917Z,18.20
2019-02-14T13:55:56.486Z,10.60
2019-02-14T13:59:20.158Z,9.20
2019-02-14T14:02:43.803Z,10.17
2019-02-14T14:06:07.410Z,10.47
2019-02-14T14:09:38.459Z,10.80
2019-02-14T14:12:56.525Z,10.23
2019-02-14T14:16:20.184Z,12.03
2019-02-14T14:19:43.655Z,11.53
2019-02-14T14:23:07.177Z,21.30
2019-02-14T14:26:30.759Z,11.53
2019-02-14T14:29:54.341Z,13.03
2019-02-14T14:33:17.948Z,26.70
2019-02-14T14:36:41.446Z,10.93
2019-02-14T14:40:08.296Z,12.53
2019-02-14T14:43:36.667Z,14.73
2019-02-14T14:47:00.389Z,11.83
2019-02-14T14:50:24.935Z,34.67
2019-02-14T14:53:48.623Z,21.50
2019-02-14T14:57:12.528Z,29.97
2019-02-14T15:00:36.266Z,16.77
2019-02-14T15:05:41.568Z,33.17
2019-02-14T15:09:06.456Z,47.83
2019-02-14T15:12:30.123Z,21.77
2019-02-14T15:15:53.616Z,25.87
2019-02-14T15:19:17.102Z,27.90
2019-02-14T15:22:41.090Z,18.77
2019-02-14T15:26:04.561Z,21.23
2019-02-14T15:29:28.241Z,40.47
2019-02-14T15:32:51.945Z,17.73
2019-02-14T15:36:15.579Z,28.37
2019-02-14T15:39:39.812Z,19.80
2019-02-14T15:43:03.439Z,35.03
2019-02-14T15:46:26.924Z,28.70
2019-02-14T15:49:50.415Z,31.73
2019-02-14T15:53:14.061Z,26.40
2019-02-14T15:56:37.658Z,42.30
2019-02-14T16:00:01.304Z,32.03
2019-02-14T16:03:24.986Z,38.13
2019-02-14T16:06:50.532Z,45.80
2019-02-14T16:10:18.643Z,54.73
2019-02-14T16:13:39.696Z,48.27
2019-02-14T16:17:03.921Z,45.03
2019-02-14T16:20:27.659Z,49.97
2019-02-14T16:23:53.020Z,57.97
2019-02-14T16:27:16.801Z,43.13
2019-02-14T16:30:40.463Z,40.80
2019-02-14T16:34:04.141Z,51.63
2019-02-14T16:37:28.178Z,44.30
2019-02-14T16:40:51.983Z,49.40
2019-02-14T16:44:15.586Z,53.17
2019-02-14T16:47:39.240Z,44.40
2019-02-14T16:51:02.908Z,52.80
2019-02-14T16:54:26.538Z,47.23
2019-02-14T16:57:50.304Z,49.63
2019-02-14T17:01:13.981Z,50.77
2019-02-14T17:04:37.441Z,58.83
2019-02-14T17:08:01.728Z,55.00
2019-02-14T17:11:26.696Z,51.70
2019-02-14T17:14:54.923Z,52.03
2019-02-14T17:18:20.779Z,57.33
2019-02-14T17:21:45.876Z,57.13
2019-02-14T17:25:09.529Z,57.40
2019-02-14T17:28:33.414Z,61.43
2019-02-14T17:31:57.280Z,57.50
2019-02-14T17:35:21.483Z,60.47
2019-02-14T17:38:45.523Z,81.93
2019-02-14T17:42:09.556Z,106.67
2019-02-14T17:45:33.590Z,84.23
2019-02-14T17:48:57.668Z,68.60
2019-02-14T17:52:21.459Z,73.37
2019-02-14T17:55:46.723Z,83.50
2019-02-14T17:59:10.994Z,78.27
2019-02-14T18:02:34.528Z,72.97
2019-02-14T18:05:58.087Z,107.77
2019-02-14T18:09:21.984Z,79.80
2019-02-14T18:12:46.346Z,80.20
2019-02-14T18:16:10.596Z,80.47
2019-02-14T18:19:34.451Z,78.87
2019-02-14T18:22:58.210Z,71.90
2019-02-14T18:26:21.840Z,62.97
2019-02-14T18:29:47.297Z,76.17
2019-02-14T18:33:11.101Z,70.77
2019-02-14T18:36:34.743Z,72.87
2019-02-14T18:39:58.497Z,95.80
2019-02-14T18:43:22.571Z,82.10
2019-02-14T18:46:47.389Z,80.60
2019-02-14T18:50:13.207Z,75.67
2019-02-14T18:53:39.209Z,79.13
2019-02-14T18:57:03.704Z,70.30
2019-02-14T19:00:28.706Z,68.40
2019-02-14T19:03:52.419Z,67.30
2019-02-14T19:07:16.599Z,74.20
2019-02-14T19:10:40.699Z,69.07
2019-02-14T19:14:06.880Z,71.60
2019-02-14T19:17:40.774Z,88.43
2019-02-14T19:21:12.445Z,88.00
2019-02-14T19:24:47.239Z,81.83
2019-02-14T19:28:15.776Z,138.13
2019-02-14T19:31:44.548Z,67.03
2019-02-14T19:35:28.701Z,138.87
2019-02-14T19:39:06.666Z,78.00
2019-02-14T19:42:31.562Z,83.10
2019-02-14T19:46:02.054Z,81.47
2019-02-14T19:49:30.494Z,64.33
2019-02-14T19:52:54.691Z,68.30
2019-02-14T19:56:18.683Z,92.03
2019-02-14T19:59:49.708Z,81.80
2019-02-14T20:03:19.687Z,65.50
2019-02-14T20:06:46.034Z,69.07
2019-02-14T20:10:13.773Z,120.27
2019-02-14T20:13:38.004Z,70.87
2019-02-14T20:17:01.872Z,63.67
2019-02-14T20:20:33.625Z,54.47
2019-02-14T20:24:01.820Z,77.77
2019-02-14T20:27:34.384Z,70.83
2019-02-14T20:31:00.485Z,62.90
2019-02-14T20:34:27.784Z,68.17
2019-02-14T20:37:58.940Z,74.83
2019-02-14T20:41:25.801Z,63.00
2019-02-14T20:45:09.769Z,77.33
2019-02-14T20:48:33.812Z,68.77
2019-02-14T20:51:57.575Z,72.00
2019-02-14T20:55:23.463Z,96.17
2019-02-14T20:58:47.184Z,94.73
2019-02-14T21:02:11.682Z,95.97
2019-02-14T21:05:35.473Z,74.17
2019-02-14T21:09:00.011Z,85.27
2019-02-14T21:12:23.839Z,90.07
2019-02-14T21:15:48.631Z,71.90
2019-02-14T21:19:13.345Z,68.67
2019-02-14T21:22:38.541Z,65.73
2019-02-14T21:26:02.229Z,92.67
2019-02-14T21:29:25.876Z,66.67
2019-02-14T21:32:49.578Z,79.73
2019-02-14T21:36:13.132Z,69.07
2019-02-14T21:39:36.792Z,68.93
2019-02-14T21:43:01.176Z,62.13
2019-02-14T21:46:25.061Z,64.53
2019-02-14T21:49:51.887Z,67.43
2019-02-14T21:53:16.467Z,60.67
2019-02-14T21:56:40.324Z,59.53
2019-02-14T22:00:10.622Z,66.50
2019-02-14T22:03:34.304Z,96.40
2019-02-14T22:06:58.240Z,111.70
2019-02-14T22:10:22.164Z,76.07
2019-02-14T22:13:45.962Z,76.23
2019-02-14T22:17:10.113Z,69.27
2019-02-14T22:20:33.811Z,105.47
2019-02-14T22:23:57.512Z,93.17
2019-02-14T22:27:21.474Z,92.83
2019-02-14T22:30:45.143Z,108.97
2019-02-14T22:34:08.764Z,106.67
2019-02-14T22:37:32.838Z,87.10
2019-02-14T22:40:57.121Z,100.43
2019-02-14T22:44:20.756Z,96.63
2019-02-14T22:47:47.301Z,92.43
2019-02-14T22:51:11.028Z,94.87
2019-02-14T22:54:34.592Z,98.47
2019-02-14T22:57:58.042Z,75.30
2019-02-14T23:01:21.629Z,92.10
2019-02-14T23:04:45.168Z,90.23
2019-02-14T23:08:08.952Z,74.30
2019-02-14T23:11:32.662Z,71.20
2019-02-14T23:14:56.248Z,74.27
2019-02-14T23:18:19.804Z,64.33
2019-02-14T23:21:43.381Z,92.13
2019-02-14T23:25:06.961Z,78.07
2019-02-14T23:28:30.920Z,68.50
2019-02-14T23:31:54.524Z,72.33
2019-02-14T23:35:18.366Z,77.63
2019-02-14T23:38:42.064Z,80.70
2019-02-14T23:42:05.538Z,75.13
2019-02-14T23:45:29.016Z,77.33
2019-02-14T23:48:52.634Z,86.17
2019-02-14T23:52:16.281Z,77.80
2019-02-14T23:55:39.814Z,84.30
2019-02-14T23:59:03.366Z,67.90
